Time;durP1;ratioP1;P1;durP2;ratioP2;P2;SDS_P1;SDS_P2;PMS_P1;PMS_P2;Temp;Humidity;BMP_temperature;BMP_pressure;BME280_temperature;BME280_humidity;BME280_pressure;Samples;Min_cycle;Max_cycle;Signal;HPM_P1;HPM_P2
2021/10/31 00:00:59;;;;;;;19.58;17.52;;;;;;;;;;2088843;28;20203;-57
2021/10/31 00:01:59;;;;;;;20.35;18.35;;;;;;;;;;2097383;28;20179;-57
2021/10/31 00:02:59;;;;;;;18.70;16.88;;;;;;;;;;2088783;28;20199;-58
2021/10/31 00:04:00;;;;;;;20.35;18.25;;;;;;;;;;2097302;28;20487;-55
2021/10/31 00:05:00;;;;;;;18.52;16.83;;;;;;;;;;2088462;28;20172;-56
2021/10/31 00:06:00;;;;;;;19.00;17.20;;;;;;;;;;2097257;28;20181;-56
2021/10/31 00:07:01;;;;;;;18.52;16.83;;;;;;;;;;2088192;28;20176;-58
2021/10/31 00:08:01;;;;;;;18.92;17.23;;;;;;;;;;2097149;28;20239;-55
2021/10/31 00:09:06;;;;;;;18.40;16.63;;;;;;;;;;2087309;28;20633;-57
2021/10/31 00:10:07;;;;;;;18.63;16.83;;;;;;;;;;2086676;28;20630;-58
2021/10/31 00:11:07;;;;;;;17.80;16.02;;;;;;;;;;2090081;28;20168;-59
2021/10/31 00:12:08;;;;;;;17.25;15.52;;;;;;;;;;2093509;28;20843;-57
2021/10/31 00:13:10;;;;;;;19.00;17.20;;;;;;;;;;2095168;28;20180;-57
2021/10/31 00:14:10;;;;;;;16.88;15.18;;;;;;;;;;2088392;28;20209;-57
2021/10/31 00:15:11;;;;;;;18.45;16.65;;;;;;;;;;2095795;28;20274;-55
2021/10/31 00:16:11;;;;;;;18.02;16.23;;;;;;;;;;2090786;28;20180;-53
2021/10/31 00:17:11;;;;;;;18.30;16.50;;;;;;;;;;2094357;28;20216;-58
2021/10/31 00:18:12;;;;;;;18.40;16.67;;;;;;;;;;2094390;28;20268;-55
2021/10/31 00:19:12;;;;;;;19.13;17.10;;;;;;;;;;2093967;28;20163;-56
2021/10/31 00:20:12;;;;;;;18.77;16.88;;;;;;;;;;2098678;28;20250;-57
2021/10/31 00:21:12;;;;;;;20.77;17.25;;;;;;;;;;2094955;28;20666;-57
2021/10/31 00:22:13;;;;;;;19.15;17.15;;;;;;;;;;2094565;28;20170;-53
2021/10/31 00:23:13;;;;;;;17.65;15.93;;;;;;;;;;2093792;28;20208;-56
2021/10/31 00:24:13;;;;;;;18.75;16.95;;;;;;;;;;2095452;28;20175;-59
2021/10/31 00:25:14;;;;;;;20.25;18.10;;;;;;;;;;2094352;28;20167;-56
2021/10/31 00:26:15;;;;;;;18.67;16.73;;;;;;;;;;2091400;28;20267;-56
2021/10/31 00:27:15;;;;;;;19.52;17.33;;;;;;;;;;2091215;28;20567;-57
2021/10/31 00:28:15;;;;;;;18.77;15.95;;;;;;;;;;2095382;28;20167;-60
2021/10/31 00:29:16;;;;;;;19.10;17.10;;;;;;;;;;2094572;28;20280;-58
2021/10/31 00:30:16;;;;;;;18.55;16.67;;;;;;;;;;2095410;28;20171;-58
2021/10/31 00:31:17;;;;;;;20.65;16.25;;;;;;;;;;2095125;28;20175;-58
2021/10/31 00:32:17;;;;;;;19.40;17.40;;;;;;;;;;2095293;28;20209;-58
2021/10/31 00:33:18;;;;;;;19.08;17.17;;;;;;;;;;2087659;28;20169;-59
2021/10/31 00:34:18;;;;;;;18.67;16.75;;;;;;;;;;2091329;28;20203;-58
2021/10/31 00:35:18;;;;;;;20.05;18.00;;;;;;;;;;2095574;28;20246;-59
2021/10/31 00:36:18;;;;;;;18.90;17.10;;;;;;;;;;2093067;28;20179;-58
2021/10/31 00:37:19;;;;;;;19.35;17.35;;;;;;;;;;2095579;28;20167;-59
2021/10/31 00:38:19;;;;;;;20.10;17.75;;;;;;;;;;2094752;28;20624;-59
2021/10/31 00:39:19;;;;;;;18.73;16.45;;;;;;;;;;2091195;28;20203;-58
2021/10/31 00:40:21;;;;;;;19.38;17.23;;;;;;;;;;2090540;28;20608;-59
2021/10/31 00:41:21;;;;;;;22.13;19.40;;;;;;;;;;2091212;28;20239;-58
2021/10/31 00:42:22;;;;;;;20.45;18.30;;;;;;;;;;2091059;28;20168;-59
2021/10/31 00:43:22;;;;;;;20.45;18.45;;;;;;;;;;2085666;28;20198;-58
2021/10/31 00:44:22;;;;;;;19.95;17.45;;;;;;;;;;2092768;28;20187;-58
2021/10/31 00:45:22;;;;;;;24.38;18.83;;;;;;;;;;2094085;28;20174;-59
2021/10/31 00:46:23;;;;;;;23.48;19.20;;;;;;;;;;2095000;28;20266;-54
2021/10/31 00:47:23;;;;;;;22.02;19.30;;;;;;;;;;2092722;28;20183;-57
2021/10/31 00:48:23;;;;;;;21.00;18.85;;;;;;;;;;2093741;28;20246;-60
2021/10/31 00:49:23;;;;;;;21.48;19.17;;;;;;;;;;2093405;28;20163;-57
2021/10/31 00:50:24;;;;;;;22.55;20.20;;;;;;;;;;2092417;28;20178;-56
2021/10/31 00:51:25;;;;;;;21.75;19.65;;;;;;;;;;2094733;28;20218;-58
2021/10/31 00:52:27;;;;;;;21.73;19.42;;;;;;;;;;2093198;28;20198;-57
2021/10/31 00:53:27;;;;;;;21.40;19.13;;;;;;;;;;2094129;28;20213;-58
2021/10/31 00:54:28;;;;;;;22.05;19.75;;;;;;;;;;2094701;28;20222;-59
2021/10/31 00:55:29;;;;;;;22.63;20.33;;;;;;;;;;2092803;28;20233;-59
2021/10/31 00:56:31;;;;;;;22.35;20.05;;;;;;;;;;2092205;28;20167;-58
2021/10/31 00:57:31;;;;;;;22.60;20.05;;;;;;;;;;2096585;28;20174;-58
2021/10/31 00:58:31;;;;;;;22.00;19.88;;;;;;;;;;2093042;28;20191;-58
2021/10/31 00:59:32;;;;;;;25.13;21.20;;;;;;;;;;2096477;28;20249;-62
2021/10/31 01:00:32;;;;;;;24.27;20.90;;;;;;;;;;2092991;28;20621;-59
2021/10/31 01:01:34;;;;;;;26.48;22.13;;;;;;;;;;2084738;28;20707;-56
2021/10/31 01:02:34;;;;;;;23.38;20.92;;;;;;;;;;2089214;28;20269;-58
2021/10/31 01:03:34;;;;;;;25.40;22.27;;;;;;;;;;2093263;28;20747;-59
2021/10/31 01:04:35;;;;;;;25.75;22.27;;;;;;;;;;2090272;28;20187;-59
2021/10/31 01:05:57;;;;;;;24.08;21.55;;;;;;;;;;2083536;28;20199;-57
2021/10/31 01:06:58;;;;;;;25.92;23.15;;;;;;;;;;2091119;28;20160;-55
2021/10/31 01:08:10;;;;;;;29.02;22.08;;;;;;;;;;2090508;28;20195;-56
2021/10/31 01:09:10;;;;;;;23.88;21.38;;;;;;;;;;2090675;28;20184;-57
2021/10/31 01:10:20;;;;;;;26.17;22.20;;;;;;;;;;2093377;28;20171;-59
2021/10/31 01:11:31;;;;;;;25.02;22.25;;;;;;;;;;2093645;28;20168;-55
2021/10/31 01:12:43;;;;;;;25.50;22.80;;;;;;;;;;2083539;28;20219;-57
2021/10/31 01:13:53;;;;;;;25.58;22.65;;;;;;;;;;2090194;28;20197;-57
2021/10/31 01:15:12;;;;;;;24.60;22.00;;;;;;;;;;2082969;28;20180;-60
2021/10/31 01:16:12;;;;;;;25.80;23.02;;;;;;;;;;2089006;28;20170;-58
2021/10/31 01:17:19;;;;;;;25.83;23.00;;;;;;;;;;2098963;28;20175;-56
2021/10/31 01:18:37;;;;;;;26.95;23.08;;;;;;;;;;2099407;28;20171;-59
2021/10/31 01:19:38;;;;;;;27.17;23.13;;;;;;;;;;2089577;28;20180;-58
2021/10/31 01:20:44;;;;;;;29.60;24.63;;;;;;;;;;2095527;28;20639;-59
2021/10/31 01:21:57;;;;;;;26.88;23.98;;;;;;;;;;2090899;28;20185;-57
2021/10/31 01:23:05;;;;;;;27.85;24.70;;;;;;;;;;2092475;28;20184;-57
2021/10/31 01:24:08;;;;;;;27.65;24.63;;;;;;;;;;2099901;28;20242;-59
2021/10/31 01:25:21;;;;;;;29.35;24.65;;;;;;;;;;2098730;28;20580;-57
2021/10/31 01:26:36;;;;;;;28.35;25.35;;;;;;;;;;2094496;28;20179;-57
2021/10/31 01:27:44;;;;;;;27.13;24.33;;;;;;;;;;2093402;28;20673;-57
2021/10/31 01:29:03;;;;;;;27.52;24.45;;;;;;;;;;2098404;28;20676;-62
2021/10/31 01:30:18;;;;;;;27.63;24.10;;;;;;;;;;2086920;28;20176;-59
2021/10/31 01:31:23;;;;;;;28.85;24.50;;;;;;;;;;2095455;28;20163;-57
2021/10/31 01:32:36;;;;;;;29.95;24.55;;;;;;;;;;2090466;28;20187;-55
2021/10/31 01:33:42;;;;;;;27.42;23.50;;;;;;;;;;2087075;28;20168;-58
2021/10/31 01:35:01;;;;;;;29.67;25.27;;;;;;;;;;2097613;28;20190;-64
2021/10/31 01:36:20;;;;;;;26.45;22.77;;;;;;;;;;2090203;28;20180;-57
2021/10/31 01:37:40;;;;;;;27.58;24.00;;;;;;;;;;2095183;28;20236;-58
2021/10/31 01:38:49;;;;;;;27.95;25.05;;;;;;;;;;2082405;28;20206;-57
2021/10/31 01:40:07;;;;;;;28.75;24.27;;;;;;;;;;2087020;28;20176;-60
2021/10/31 01:41:32;;;;;;;27.52;24.10;;;;;;;;;;2088632;28;20174;-57
2021/10/31 01:42:40;;;;;;;30.95;23.58;;;;;;;;;;2088706;28;20191;-57
2021/10/31 01:44:02;;;;;;;27.00;23.05;;;;;;;;;;2089585;28;20180;-56
2021/10/31 01:45:07;;;;;;;25.20;22.50;;;;;;;;;;2084107;28;20181;-57
2021/10/31 01:46:11;;;;;;;26.77;23.65;;;;;;;;;;2081961;28;20153;-56
2021/10/31 01:47:27;;;;;;;28.35;24.40;;;;;;;;;;2082207;28;20198;-57
2021/10/31 01:48:34;;;;;;;28.90;24.83;;;;;;;;;;2092285;28;20171;-56
2021/10/31 01:49:37;;;;;;;26.17;23.25;;;;;;;;;;2092125;28;20167;-56
2021/10/31 01:50:40;;;;;;;27.88;23.85;;;;;;;;;;2090143;28;20160;-56
2021/10/31 01:51:49;;;;;;;25.65;22.85;;;;;;;;;;2089520;28;20246;-55
2021/10/31 01:52:54;;;;;;;28.13;22.70;;;;;;;;;;2102919;22;20207;-65
2021/10/31 01:54:00;;;;;;;29.02;23.65;;;;;;;;;;2095979;28;20199;-62
2021/10/31 01:55:04;;;;;;;27.30;22.73;;;;;;;;;;2088856;28;20175;-62
2021/10/31 01:56:04;;;;;;;26.13;23.20;;;;;;;;;;2089063;28;20191;-63
2021/10/31 01:57:06;;;;;;;26.48;23.67;;;;;;;;;;2097887;28;20167;-63
2021/10/31 01:58:09;;;;;;;27.40;23.25;;;;;;;;;;2097296;28;20170;-62
2021/10/31 01:59:14;;;;;;;26.23;22.83;;;;;;;;;;2089304;28;20357;-63
2021/10/31 02:00:15;;;;;;;26.88;23.50;;;;;;;;;;2089756;28;20655;-65
2021/10/31 02:01:16;;;;;;;26.67;23.70;;;;;;;;;;2098118;28;20266;-62
2021/10/31 02:02:17;;;;;;;26.90;23.10;;;;;;;;;;2097689;28;20177;-64
2021/10/31 02:03:19;;;;;;;26.50;23.60;;;;;;;;;;2098292;28;20274;-62
2021/10/31 02:04:22;;;;;;;26.30;23.40;;;;;;;;;;2096889;28;20695;-60
2021/10/31 02:05:24;;;;;;;26.63;23.83;;;;;;;;;;2098543;28;20167;-62
2021/10/31 02:06:24;;;;;;;27.80;23.10;;;;;;;;;;2098305;28;20328;-63
2021/10/31 02:07:25;;;;;;;27.05;23.55;;;;;;;;;;2098512;28;20171;-63
2021/10/31 02:08:27;;;;;;;27.10;23.27;;;;;;;;;;2098429;28;20270;-61
2021/10/31 02:09:29;;;;;;;27.65;22.65;;;;;;;;;;2098576;28;20208;-64
2021/10/31 02:10:30;;;;;;;25.52;22.58;;;;;;;;;;2093759;28;20171;-62
2021/10/31 02:11:33;;;;;;;28.05;21.88;;;;;;;;;;2072906;28;20231;-62
2021/10/31 02:12:34;;;;;;;26.65;23.67;;;;;;;;;;2073562;28;20177;-64
2021/10/31 02:13:35;;;;;;;25.50;22.13;;;;;;;;;;2090009;28;20702;-65
2021/10/31 02:14:36;;;;;;;24.17;20.80;;;;;;;;;;2090148;28;20187;-64
2021/10/31 02:15:37;;;;;;;25.17;22.30;;;;;;;;;;2078927;28;20180;-63
2021/10/31 02:16:37;;;;;;;25.08;22.45;;;;;;;;;;2080684;28;20184;-62
2021/10/31 02:17:38;;;;;;;27.27;22.15;;;;;;;;;;2089313;28;20167;-63
2021/10/31 02:18:39;;;;;;;27.88;22.60;;;;;;;;;;2088183;28;20182;-61
2021/10/31 02:19:40;;;;;;;27.65;22.10;;;;;;;;;;2071047;28;20196;-64
2021/10/31 02:20:42;;;;;;;25.10;22.10;;;;;;;;;;2072922;28;20186;-63
2021/10/31 02:21:45;;;;;;;30.23;22.77;;;;;;;;;;2080574;28;20242;-64
2021/10/31 02:22:52;;;;;;;24.05;21.45;;;;;;;;;;2085349;28;20192;-60
2021/10/31 02:23:53;;;;;;;28.98;23.02;;;;;;;;;;2083349;28;20636;-62
2021/10/31 02:24:53;;;;;;;28.48;23.05;;;;;;;;;;2088434;28;20259;-63
2021/10/31 02:25:54;;;;;;;27.27;22.92;;;;;;;;;;2096789;28;20175;-63
2021/10/31 02:26:54;;;;;;;24.67;21.85;;;;;;;;;;2089823;28;20812;-63
2021/10/31 02:27:55;;;;;;;25.15;22.20;;;;;;;;;;2091198;28;20195;-61
2021/10/31 02:28:56;;;;;;;25.05;21.95;;;;;;;;;;2093233;28;20202;-62
2021/10/31 02:29:57;;;;;;;25.08;20.80;;;;;;;;;;2100159;28;20151;-64
2021/10/31 02:30:57;;;;;;;27.23;21.92;;;;;;;;;;2096156;28;20163;-64
2021/10/31 02:31:58;;;;;;;26.42;21.23;;;;;;;;;;2101273;28;20206;-62
2021/10/31 02:32:58;;;;;;;23.58;21.08;;;;;;;;;;2086295;28;20226;-63
2021/10/31 02:33:58;;;;;;;25.95;22.17;;;;;;;;;;2096378;28;20611;-58
2021/10/31 02:34:59;;;;;;;26.73;21.40;;;;;;;;;;2082591;28;20200;-61
2021/10/31 02:36:00;;;;;;;25.33;21.45;;;;;;;;;;2083816;28;20183;-64
2021/10/31 02:37:00;;;;;;;26.60;21.13;;;;;;;;;;2085073;28;20176;-63
2021/10/31 02:38:00;;;;;;;29.02;22.05;;;;;;;;;;2095351;28;20174;-63
2021/10/31 02:39:02;;;;;;;28.55;22.05;;;;;;;;;;2084644;28;20668;-63
2021/10/31 02:40:03;;;;;;;23.95;19.85;;;;;;;;;;2093277;28;20251;-62
2021/10/31 02:41:03;;;;;;;25.15;20.27;;;;;;;;;;2085428;28;20171;-63
2021/10/31 02:42:04;;;;;;;25.08;20.80;;;;;;;;;;2094831;28;20222;-61
2021/10/31 02:43:05;;;;;;;25.75;20.85;;;;;;;;;;2091860;28;20194;-59
2021/10/31 02:44:05;;;;;;;24.30;20.83;;;;;;;;;;2096655;28;20669;-61
2021/10/31 02:45:06;;;;;;;26.70;22.52;;;;;;;;;;2095569;28;20201;-62
2021/10/31 02:46:06;;;;;;;24.77;20.10;;;;;;;;;;2088529;28;20538;-62
2021/10/31 02:47:08;;;;;;;26.38;20.90;;;;;;;;;;2092258;28;20186;-58
2021/10/31 02:48:10;;;;;;;25.88;20.85;;;;;;;;;;2094461;28;20832;-64
2021/10/31 02:49:11;;;;;;;25.30;21.15;;;;;;;;;;2091977;28;20155;-63
2021/10/31 02:50:16;;;;;;;26.38;21.70;;;;;;;;;;2088634;28;20619;-55
2021/10/31 02:51:33;;;;;;;25.17;21.90;;;;;;;;;;2093241;28;20183;-61
2021/10/31 02:52:53;;;;;;;28.17;21.52;;;;;;;;;;2087548;28;20180;-61
2021/10/31 02:53:57;;;;;;;24.02;21.38;;;;;;;;;;2087316;28;20176;-62
2021/10/31 02:55:00;;;;;;;24.40;20.48;;;;;;;;;;2087588;28;20182;-58
2021/10/31 02:56:00;;;;;;;30.40;21.60;;;;;;;;;;2083064;28;20160;-59
2021/10/31 02:57:14;;;;;;;25.75;21.55;;;;;;;;;;2090137;28;20611;-59
2021/10/31 02:58:23;;;;;;;27.02;21.38;;;;;;;;;;2094490;28;20163;-57
2021/10/31 02:59:28;;;;;;;25.67;21.08;;;;;;;;;;2092749;28;20265;-61
2021/10/31 03:00:29;;;;;;;25.88;22.55;;;;;;;;;;2094756;28;20515;-60
2021/10/31 03:01:29;;;;;;;26.92;21.83;;;;;;;;;;2091113;28;20221;-63
2021/10/31 03:02:30;;;;;;;30.17;23.40;;;;;;;;;;2091474;28;20781;-60
2021/10/31 03:03:32;;;;;;;26.77;22.77;;;;;;;;;;2093027;28;20216;-63
2021/10/31 03:04:32;;;;;;;27.52;23.08;;;;;;;;;;2091300;28;20182;-63
2021/10/31 03:05:33;;;;;;;28.13;22.90;;;;;;;;;;2095744;28;20182;-61
2021/10/31 03:06:33;;;;;;;31.80;24.10;;;;;;;;;;2095101;28;20163;-64
2021/10/31 03:07:35;;;;;;;31.27;23.88;;;;;;;;;;2096248;28;20198;-63
2021/10/31 03:08:35;;;;;;;31.00;23.60;;;;;;;;;;2091306;28;20183;-64
2021/10/31 03:09:35;;;;;;;29.83;24.20;;;;;;;;;;2087259;28;20172;-62
2021/10/31 03:10:36;;;;;;;31.77;24.25;;;;;;;;;;2082993;28;20742;-63
2021/10/31 03:11:36;;;;;;;31.50;25.48;;;;;;;;;;2094230;28;20170;-63
2021/10/31 03:12:36;;;;;;;30.52;25.98;;;;;;;;;;2091169;28;20168;-62
2021/10/31 03:13:36;;;;;;;29.83;25.30;;;;;;;;;;2096201;28;20221;-60
2021/10/31 03:14:37;;;;;;;31.40;25.77;;;;;;;;;;2088528;28;20575;-64
2021/10/31 03:15:37;;;;;;;29.95;25.45;;;;;;;;;;2081097;28;20545;-63
2021/10/31 03:16:37;;;;;;;31.92;26.20;;;;;;;;;;2094224;28;20512;-61
2021/10/31 03:17:38;;;;;;;34.72;26.20;;;;;;;;;;2090845;28;20584;-63
2021/10/31 03:18:38;;;;;;;33.00;26.17;;;;;;;;;;2096445;28;20228;-63
2021/10/31 03:19:38;;;;;;;30.48;25.92;;;;;;;;;;2089169;28;20529;-61
2021/10/31 03:20:39;;;;;;;34.38;26.23;;;;;;;;;;2094757;28;20225;-64
2021/10/31 03:21:39;;;;;;;33.53;25.80;;;;;;;;;;2090776;28;20175;-62
2021/10/31 03:22:39;;;;;;;32.65;26.40;;;;;;;;;;2096441;28;20209;-61
2021/10/31 03:23:40;;;;;;;31.52;25.13;;;;;;;;;;2079747;28;20754;-61
2021/10/31 03:24:40;;;;;;;33.13;25.92;;;;;;;;;;2078491;28;20205;-64
2021/10/31 03:25:40;;;;;;;34.63;26.65;;;;;;;;;;2090340;28;20689;-62
2021/10/31 03:26:40;;;;;;;32.83;26.25;;;;;;;;;;2096565;28;20224;-63
2021/10/31 03:27:41;;;;;;;33.42;26.52;;;;;;;;;;2092570;28;20679;-64
2021/10/31 03:28:41;;;;;;;32.45;26.30;;;;;;;;;;2092186;28;20179;-64
2021/10/31 03:29:41;;;;;;;34.28;26.45;;;;;;;;;;2096143;28;20240;-64
2021/10/31 03:30:42;;;;;;;35.72;28.08;;;;;;;;;;2089859;28;20209;-62
2021/10/31 03:31:42;;;;;;;31.98;26.08;;;;;;;;;;2097149;28;20250;-63
2021/10/31 03:32:42;;;;;;;35.28;26.77;;;;;;;;;;2097748;28;20878;-64
2021/10/31 03:33:42;;;;;;;34.13;27.23;;;;;;;;;;2093672;28;20173;-63
2021/10/31 03:34:43;;;;;;;34.63;28.63;;;;;;;;;;2096396;28;20185;-61
2021/10/31 03:35:43;;;;;;;36.67;28.20;;;;;;;;;;2090236;28;20171;-61
2021/10/31 03:36:44;;;;;;;35.33;28.60;;;;;;;;;;2097244;28;20167;-64
2021/10/31 03:37:44;;;;;;;40.58;28.98;;;;;;;;;;2098108;28;20206;-64
2021/10/31 03:38:45;;;;;;;39.53;28.48;;;;;;;;;;2097821;28;20708;-68
2021/10/31 03:39:45;;;;;;;36.95;28.38;;;;;;;;;;2092140;28;20589;-63
2021/10/31 03:40:46;;;;;;;35.65;28.67;;;;;;;;;;2088706;28;20258;-63
2021/10/31 03:41:46;;;;;;;37.58;30.00;;;;;;;;;;2089471;28;20187;-61
2021/10/31 03:42:46;;;;;;;38.17;28.98;;;;;;;;;;2089421;28;20191;-61
2021/10/31 03:43:47;;;;;;;42.30;30.75;;;;;;;;;;2089762;28;20175;-62
2021/10/31 03:44:48;;;;;;;35.08;28.33;;;;;;;;;;2075928;28;20704;-65
2021/10/31 03:45:50;;;;;;;37.65;29.88;;;;;;;;;;2088835;28;20182;-62
2021/10/31 03:46:50;;;;;;;35.50;28.90;;;;;;;;;;2081302;28;20160;-62
2021/10/31 03:47:51;;;;;;;39.20;30.30;;;;;;;;;;2097843;28;20746;-61
2021/10/31 03:48:51;;;;;;;38.70;29.80;;;;;;;;;;2097733;28;20536;-61
2021/10/31 03:49:51;;;;;;;38.60;29.75;;;;;;;;;;2097568;28;20223;-62
2021/10/31 03:50:51;;;;;;;34.50;29.42;;;;;;;;;;2091986;28;20290;-63
2021/10/31 03:51:52;;;;;;;38.08;30.10;;;;;;;;;;2096950;28;20162;-62
2021/10/31 03:52:55;;;;;;;39.78;30.33;;;;;;;;;;2080303;28;20179;-63
2021/10/31 03:53:55;;;;;;;37.75;29.73;;;;;;;;;;2081390;28;20188;-63
2021/10/31 03:54:55;;;;;;;38.15;31.70;;;;;;;;;;2096518;28;20319;-62
2021/10/31 03:55:55;;;;;;;37.95;32.58;;;;;;;;;;2089181;28;20163;-60
2021/10/31 03:56:56;;;;;;;40.33;32.05;;;;;;;;;;2090167;28;20190;-62
2021/10/31 03:57:57;;;;;;;40.97;33.13;;;;;;;;;;2097105;28;20167;-61
2021/10/31 03:58:58;;;;;;;40.10;32.92;;;;;;;;;;2091500;28;20188;-61
2021/10/31 03:59:58;;;;;;;44.00;32.70;;;;;;;;;;2098578;28;20167;-62
2021/10/31 04:01:00;;;;;;;42.00;34.17;;;;;;;;;;2098564;28;20258;-62
2021/10/31 04:02:00;;;;;;;46.72;33.63;;;;;;;;;;2089556;28;20663;-62
2021/10/31 04:03:00;;;;;;;41.10;32.13;;;;;;;;;;2089693;28;20207;-59
2021/10/31 04:04:01;;;;;;;43.30;33.22;;;;;;;;;;2090998;28;20183;-61
2021/10/31 04:05:02;;;;;;;44.45;34.22;;;;;;;;;;2096631;28;20167;-64
2021/10/31 04:06:02;;;;;;;45.08;34.55;;;;;;;;;;2092236;28;20172;-55
2021/10/31 04:07:02;;;;;;;45.92;34.40;;;;;;;;;;2098543;28;20179;-62
2021/10/31 04:08:03;;;;;;;48.55;35.83;;;;;;;;;;2090009;28;20203;-62
2021/10/31 04:09:03;;;;;;;43.92;34.85;;;;;;;;;;2090796;28;20183;-64
2021/10/31 04:10:04;;;;;;;47.92;36.00;;;;;;;;;;2094500;28;20259;-61
2021/10/31 04:11:04;;;;;;;45.30;34.75;;;;;;;;;;2084293;28;20228;-64
2021/10/31 04:12:05;;;;;;;48.22;35.65;;;;;;;;;;2088466;28;20168;-63
2021/10/31 04:13:05;;;;;;;48.33;36.20;;;;;;;;;;2091592;28;20180;-62
2021/10/31 04:14:05;;;;;;;47.47;36.85;;;;;;;;;;2092473;28;20250;-62
2021/10/31 04:15:06;;;;;;;53.55;37.30;;;;;;;;;;2091638;28;20229;-63
2021/10/31 04:16:06;;;;;;;53.45;38.35;;;;;;;;;;2091853;28;20667;-63
2021/10/31 04:17:06;;;;;;;53.15;38.80;;;;;;;;;;2094370;28;20177;-62
2021/10/31 04:18:07;;;;;;;51.15;36.78;;;;;;;;;;2077336;28;20169;-62
2021/10/31 04:19:07;;;;;;;48.25;37.67;;;;;;;;;;2084827;28;20279;-64
2021/10/31 04:20:08;;;;;;;51.40;38.28;;;;;;;;;;2086496;28;20183;-62
2021/10/31 04:21:08;;;;;;;52.85;38.17;;;;;;;;;;2092165;28;20191;-61
2021/10/31 04:22:08;;;;;;;54.80;38.47;;;;;;;;;;2086719;28;20203;-65
2021/10/31 04:23:08;;;;;;;56.03;40.28;;;;;;;;;;2092344;28;20199;-63
2021/10/31 04:24:09;;;;;;;54.53;40.67;;;;;;;;;;2086484;28;20167;-62
2021/10/31 04:25:09;;;;;;;51.42;39.42;;;;;;;;;;2092086;28;20222;-63
2021/10/31 04:26:09;;;;;;;64.30;41.33;;;;;;;;;;2080956;28;20176;-64
2021/10/31 04:27:10;;;;;;;54.33;39.42;;;;;;;;;;2084106;28;20575;-60
2021/10/31 04:28:10;;;;;;;61.22;41.22;;;;;;;;;;2091722;28;20682;-62
2021/10/31 04:29:10;;;;;;;54.10;39.08;;;;;;;;;;2095057;28;20262;-62
2021/10/31 04:30:12;;;;;;;61.95;41.60;;;;;;;;;;2092443;28;20587;-60
2021/10/31 04:31:13;;;;;;;56.28;40.20;;;;;;;;;;2094836;28;20191;-65
2021/10/31 04:32:13;;;;;;;57.92;41.58;;;;;;;;;;2093589;28;20226;-60
2021/10/31 04:33:13;;;;;;;55.97;40.88;;;;;;;;;;2089422;28;20258;-62
2021/10/31 04:34:13;;;;;;;55.30;40.85;;;;;;;;;;2093011;28;20183;-61
2021/10/31 04:35:14;;;;;;;60.03;41.90;;;;;;;;;;2090899;28;20187;-62
2021/10/31 04:36:14;;;;;;;55.83;40.08;;;;;;;;;;2088563;28;20163;-62
2021/10/31 04:37:15;;;;;;;57.35;40.47;;;;;;;;;;2093135;28;20533;-63
2021/10/31 04:38:19;;;;;;;58.60;41.60;;;;;;;;;;2083466;28;20175;-63
2021/10/31 04:39:20;;;;;;;58.13;41.65;;;;;;;;;;2079983;28;20255;-61
2021/10/31 04:40:22;;;;;;;58.22;41.78;;;;;;;;;;2086116;28;20176;-61
2021/10/31 04:41:25;;;;;;;54.95;41.22;;;;;;;;;;2095925;28;20177;-64
2021/10/31 04:42:30;;;;;;;58.80;39.92;;;;;;;;;;2096488;28;20171;-62
2021/10/31 04:43:30;;;;;;;58.97;42.22;;;;;;;;;;2093460;28;20269;-63
2021/10/31 04:44:31;;;;;;;61.80;42.00;;;;;;;;;;2097029;28;20220;-58
2021/10/31 04:45:31;;;;;;;58.15;40.17;;;;;;;;;;2096318;28;20252;-62
2021/10/31 04:46:31;;;;;;;54.30;41.33;;;;;;;;;;2092538;28;20178;-62
2021/10/31 04:47:32;;;;;;;57.78;41.17;;;;;;;;;;2086709;28;20206;-64
2021/10/31 04:48:32;;;;;;;54.53;38.45;;;;;;;;;;2088770;28;20536;-60
2021/10/31 04:49:33;;;;;;;54.17;37.55;;;;;;;;;;2083777;28;20230;-62
2021/10/31 04:50:34;;;;;;;59.15;40.05;;;;;;;;;;2088000;28;20192;-60
2021/10/31 04:51:34;;;;;;;55.58;38.67;;;;;;;;;;2097334;28;20163;-61
2021/10/31 04:52:34;;;;;;;55.13;39.53;;;;;;;;;;2091153;28;20165;-62
2021/10/31 04:53:35;;;;;;;59.05;38.55;;;;;;;;;;2089544;28;20218;-61
2021/10/31 04:54:35;;;;;;;56.33;39.80;;;;;;;;;;2089826;28;20184;-63
2021/10/31 04:55:39;;;;;;;52.40;38.15;;;;;;;;;;2087788;28;20187;-61
2021/10/31 04:56:39;;;;;;;54.58;42.08;;;;;;;;;;2096697;28;20228;-64
2021/10/31 04:57:40;;;;;;;54.88;39.38;;;;;;;;;;2092011;28;20241;-61
2021/10/31 04:58:40;;;;;;;53.42;38.15;;;;;;;;;;2089179;28;20168;-63
2021/10/31 04:59:40;;;;;;;56.30;38.33;;;;;;;;;;2086776;28;20606;-63
2021/10/31 05:00:40;;;;;;;58.17;40.50;;;;;;;;;;2087574;28;20174;-63
2021/10/31 05:01:41;;;;;;;54.83;38.00;;;;;;;;;;2074739;28;20181;-61
2021/10/31 05:02:41;;;;;;;55.08;37.90;;;;;;;;;;2072436;28;20247;-61
2021/10/31 05:03:41;;;;;;;52.35;37.97;;;;;;;;;;2081604;28;20172;-63
2021/10/31 05:04:43;;;;;;;55.72;37.58;;;;;;;;;;2090349;28;20540;-58
2021/10/31 05:05:43;;;;;;;51.33;36.85;;;;;;;;;;2097711;28;20261;-62
2021/10/31 05:06:44;;;;;;;53.60;37.05;;;;;;;;;;2082260;28;20183;-62
2021/10/31 05:07:44;;;;;;;53.88;35.50;;;;;;;;;;2089791;28;20206;-61
2021/10/31 05:08:45;;;;;;;53.25;36.92;;;;;;;;;;2089414;28;20193;-65
2021/10/31 05:09:45;;;;;;;60.08;38.95;;;;;;;;;;2084577;28;20191;-63
2021/10/31 05:10:45;;;;;;;55.65;38.20;;;;;;;;;;2096902;28;20193;-63
2021/10/31 05:11:45;;;;;;;53.80;37.90;;;;;;;;;;2080982;28;20187;-61
2021/10/31 05:12:46;;;;;;;55.25;37.85;;;;;;;;;;2089213;28;20206;-60
2021/10/31 05:13:48;;;;;;;54.97;36.70;;;;;;;;;;2083028;28;20180;-61
2021/10/31 05:14:48;;;;;;;54.20;37.38;;;;;;;;;;2082257;28;20181;-66
2021/10/31 05:15:48;;;;;;;49.78;35.47;;;;;;;;;;2090992;28;20188;-63
2021/10/31 05:16:48;;;;;;;50.85;37.10;;;;;;;;;;2098557;28;20445;-63
2021/10/31 05:17:49;;;;;;;54.42;35.65;;;;;;;;;;2089560;28;20226;-63
2021/10/31 05:18:49;;;;;;;58.40;36.35;;;;;;;;;;2090823;28;20168;-64
2021/10/31 05:19:50;;;;;;;52.72;37.65;;;;;;;;;;2089622;28;20171;-64
2021/10/31 05:20:50;;;;;;;50.00;35.50;;;;;;;;;;2080877;28;20180;-60
2021/10/31 05:21:50;;;;;;;58.03;37.70;;;;;;;;;;2081793;28;20161;-63
2021/10/31 05:22:50;;;;;;;47.72;35.15;;;;;;;;;;2080780;28;20267;-64
2021/10/31 05:23:51;;;;;;;52.28;35.33;;;;;;;;;;2098466;28;20163;-61
2021/10/31 05:24:51;;;;;;;53.08;35.88;;;;;;;;;;2081522;28;20183;-60
2021/10/31 05:25:51;;;;;;;51.63;35.03;;;;;;;;;;2090466;28;20233;-64
2021/10/31 05:26:52;;;;;;;53.70;35.92;;;;;;;;;;2099167;28;20233;-63
2021/10/31 05:27:52;;;;;;;49.22;33.25;;;;;;;;;;2094836;28;20299;-62
2021/10/31 05:28:53;;;;;;;49.97;35.97;;;;;;;;;;2078218;28;20180;-63
2021/10/31 05:29:54;;;;;;;54.90;34.33;;;;;;;;;;2088048;28;20168;-63
2021/10/31 05:30:54;;;;;;;50.25;34.78;;;;;;;;;;2101139;28;20217;-61
2021/10/31 05:31:55;;;;;;;50.13;35.05;;;;;;;;;;2090583;28;20167;-59
2021/10/31 05:32:55;;;;;;;49.38;34.63;;;;;;;;;;2073131;28;20263;-58
2021/10/31 05:33:57;;;;;;;46.17;33.70;;;;;;;;;;2072782;28;20207;-62
2021/10/31 05:34:57;;;;;;;46.38;34.38;;;;;;;;;;2090861;28;20168;-58
2021/10/31 05:35:57;;;;;;;49.42;34.20;;;;;;;;;;2084965;28;20229;-59
2021/10/31 05:36:58;;;;;;;47.33;33.05;;;;;;;;;;2097237;28;20174;-63
2021/10/31 05:37:59;;;;;;;48.75;32.78;;;;;;;;;;2091494;28;20182;-62
2021/10/31 05:38:59;;;;;;;48.53;33.97;;;;;;;;;;2098358;28;20263;-64
2021/10/31 05:40:00;;;;;;;48.67;34.67;;;;;;;;;;2095019;28;20191;-61
2021/10/31 05:41:03;;;;;;;43.38;32.03;;;;;;;;;;2087519;28;20585;-63
2021/10/31 05:42:03;;;;;;;50.22;33.58;;;;;;;;;;2083568;28;20181;-61
2021/10/31 05:43:03;;;;;;;47.38;32.50;;;;;;;;;;2097905;28;20324;-60
2021/10/31 05:44:03;;;;;;;47.60;33.58;;;;;;;;;;2086103;28;20268;-62
2021/10/31 05:45:06;;;;;;;46.70;32.55;;;;;;;;;;2086700;28;20186;-62
2021/10/31 05:46:06;;;;;;;50.10;33.67;;;;;;;;;;2091604;28;20179;-63
2021/10/31 05:47:08;;;;;;;51.67;33.53;;;;;;;;;;2087090;28;20179;-64
2021/10/31 05:48:09;;;;;;;49.25;32.80;;;;;;;;;;2079536;28;20253;-61
2021/10/31 05:49:09;;;;;;;53.63;32.08;;;;;;;;;;2076382;28;20157;-62
2021/10/31 05:50:11;;;;;;;49.10;32.30;;;;;;;;;;2075338;28;20251;-62
2021/10/31 05:51:11;;;;;;;47.15;32.85;;;;;;;;;;2095168;28;20167;-62
2021/10/31 05:52:12;;;;;;;46.53;33.03;;;;;;;;;;2093432;28;20173;-62
2021/10/31 05:53:13;;;;;;;51.72;32.33;;;;;;;;;;2080397;28;20204;-62
2021/10/31 05:54:13;;;;;;;44.55;31.23;;;;;;;;;;2080550;28;20180;-64
2021/10/31 05:55:15;;;;;;;43.10;30.70;;;;;;;;;;2089348;28;20174;-63
2021/10/31 05:56:15;;;;;;;45.17;31.50;;;;;;;;;;2093650;28;20370;-61
2021/10/31 05:57:16;;;;;;;46.85;33.08;;;;;;;;;;2093836;28;20222;-65
2021/10/31 05:58:16;;;;;;;48.83;31.15;;;;;;;;;;2091856;28;20166;-64
2021/10/31 05:59:16;;;;;;;44.17;29.77;;;;;;;;;;2080958;28;20167;-64
2021/10/31 06:00:17;;;;;;;43.72;29.23;;;;;;;;;;2084481;28;20172;-59
2021/10/31 06:01:17;;;;;;;43.22;30.60;;;;;;;;;;2093633;28;20201;-60